sensor_id;sensor_type;location;lat;lon;timestamp;pressure;altitude;pressure_sealevel;temperature;humidity
21753;BME280;11038;50.940;20.564;2022-09-25T00:00:23;97653.22;;;8.62;98.06
21753;BME280;11038;50.940;20.564;2022-09-25T00:02:16;97647.88;;;8.53;97.81
21753;BME280;11038;50.940;20.564;2022-09-25T00:03:49;97652.44;;;8.61;98.13
21753;BME280;11038;50.940;20.564;2022-09-25T00:05:21;97646.25;;;8.61;98.21
21753;BME280;11038;50.940;20.564;2022-09-25T00:06:53;97641.06;;;8.59;98.27
21753;BME280;11038;50.940;20.564;2022-09-25T00:08:26;97640.63;;;8.64;98.09
21753;BME280;11038;50.940;20.564;2022-09-25T00:09:58;97651.59;;;8.61;98.26
21753;BME280;11038;50.940;20.564;2022-09-25T00:11:31;97639.25;;;8.60;98.42
21753;BME280;11038;50.940;20.564;2022-09-25T00:13:05;97644.56;;;8.60;98.51
21753;BME280;11038;50.940;20.564;2022-09-25T00:14:37;97640.94;;;8.61;98.71
21753;BME280;11038;50.940;20.564;2022-09-25T00:16:13;97633.91;;;8.60;98.38
21753;BME280;11038;50.940;20.564;2022-09-25T00:17:47;97643.09;;;8.66;98.98
21753;BME280;11038;50.940;20.564;2022-09-25T00:19:20;97635.97;;;8.66;98.29
21753;BME280;11038;50.940;20.564;2022-09-25T00:21:14;97635.28;;;8.64;98.83
21753;BME280;11038;50.940;20.564;2022-09-25T00:22:47;97631.59;;;8.65;98.86
21753;BME280;11038;50.940;20.564;2022-09-25T00:24:19;97630.28;;;8.61;99.15
21753;BME280;11038;50.940;20.564;2022-09-25T00:25:53;97635.59;;;8.61;99.21
21753;BME280;11038;50.940;20.564;2022-09-25T00:27:28;97631.78;;;8.63;99.29
21753;BME280;11038;50.940;20.564;2022-09-25T00:29:00;97636.94;;;8.65;99.32
21753;BME280;11038;50.940;20.564;2022-09-25T00:30:33;97641.63;;;8.71;99.26
21753;BME280;11038;50.940;20.564;2022-09-25T00:32:08;97635.31;;;8.72;99.48
21753;BME280;11038;50.940;20.564;2022-09-25T00:33:41;97633.81;;;8.70;99.40
21753;BME280;11038;50.940;20.564;2022-09-25T00:35:13;97637.97;;;8.72;99.21
21753;BME280;11038;50.940;20.564;2022-09-25T00:36:46;97630.63;;;8.66;99.60
21753;BME280;11038;50.940;20.564;2022-09-25T00:38:18;97632.97;;;8.69;99.77
21753;BME280;11038;50.940;20.564;2022-09-25T00:39:50;97625.78;;;8.61;99.86
21753;BME280;11038;50.940;20.564;2022-09-25T00:41:26;97627.31;;;8.72;99.72
21753;BME280;11038;50.940;20.564;2022-09-25T00:42:59;97631.63;;;8.73;99.97
21753;BME280;11038;50.940;20.564;2022-09-25T00:44:55;97634.63;;;8.70;99.79
21753;BME280;11038;50.940;20.564;2022-09-25T00:46:41;97626.16;;;8.75;99.54
21753;BME280;11038;50.940;20.564;2022-09-25T00:48:15;97623.97;;;8.70;99.95
21753;BME280;11038;50.940;20.564;2022-09-25T00:49:48;97625.13;;;8.68;99.56
21753;BME280;11038;50.940;20.564;2022-09-25T00:51:29;97627.66;;;8.69;99.91
21753;BME280;11038;50.940;20.564;2022-09-25T00:53:21;97623.81;;;8.72;99.72
21753;BME280;11038;50.940;20.564;2022-09-25T00:55:04;97632.44;;;8.66;99.92
21753;BME280;11038;50.940;20.564;2022-09-25T00:56:43;97627.22;;;8.56;99.97
21753;BME280;11038;50.940;20.564;2022-09-25T00:58:21;97629.25;;;8.62;99.92
21753;BME280;11038;50.940;20.564;2022-09-25T01:00:04;97629.72;;;8.57;99.92
21753;BME280;11038;50.940;20.564;2022-09-25T01:01:39;97627.88;;;8.49;100.00
21753;BME280;11038;50.940;20.564;2022-09-25T01:03:12;97631.84;;;8.45;100.00
21753;BME280;11038;50.940;20.564;2022-09-25T01:04:46;97630.69;;;8.48;100.00
21753;BME280;11038;50.940;20.564;2022-09-25T01:06:21;97624.19;;;8.42;100.00
21753;BME280;11038;50.940;20.564;2022-09-25T01:07:58;97617.84;;;8.43;100.00
21753;BME280;11038;50.940;20.564;2022-09-25T01:09:32;97623.47;;;8.40;100.00
21753;BME280;11038;50.940;20.564;2022-09-25T01:11:04;97620.47;;;8.35;100.00
21753;BME280;11038;50.940;20.564;2022-09-25T01:12:44;97612.97;;;8.30;100.00
21753;BME280;11038;50.940;20.564;2022-09-25T01:14:17;97614.66;;;8.31;100.00
21753;BME280;11038;50.940;20.564;2022-09-25T01:15:57;97614.44;;;8.24;100.00
21753;BME280;11038;50.940;20.564;2022-09-25T01:18:05;97616.09;;;8.25;100.00
21753;BME280;11038;50.940;20.564;2022-09-25T01:21:52;97621.13;;;8.28;100.00
21753;BME280;11038;50.940;20.564;2022-09-25T01:23:52;97615.44;;;8.23;100.00
21753;BME280;11038;50.940;20.564;2022-09-25T01:25:49;97614.38;;;8.16;100.00
21753;BME280;11038;50.940;20.564;2022-09-25T01:28:38;97617.34;;;8.13;100.00
21753;BME280;11038;50.940;20.564;2022-09-25T01:30:08;97623.69;;;8.12;100.00
21753;BME280;11038;50.940;20.564;2022-09-25T01:31:54;97618.19;;;8.13;100.00
21753;BME280;11038;50.940;20.564;2022-09-25T01:33:42;97623.03;;;8.10;100.00
21753;BME280;11038;50.940;20.564;2022-09-25T01:35:25;97618.31;;;8.03;100.00
21753;BME280;11038;50.940;20.564;2022-09-25T01:39:08;97612.28;;;7.93;100.00
21753;BME280;11038;50.940;20.564;2022-09-25T01:40:56;97615.19;;;7.81;100.00
21753;BME280;11038;50.940;20.564;2022-09-25T01:42:45;97613.50;;;7.80;100.00
21753;BME280;11038;50.940;20.564;2022-09-25T01:44:35;97614.66;;;7.78;100.00
21753;BME280;11038;50.940;20.564;2022-09-25T01:46:23;97612.16;;;7.76;100.00
21753;BME280;11038;50.940;20.564;2022-09-25T01:47:59;97616.94;;;7.72;100.00
21753;BME280;11038;50.940;20.564;2022-09-25T01:49:40;97610.78;;;7.72;100.00
21753;BME280;11038;50.940;20.564;2022-09-25T01:51:26;97609.44;;;7.68;100.00
21753;BME280;11038;50.940;20.564;2022-09-25T01:53:06;97614.75;;;7.68;100.00
21753;BME280;11038;50.940;20.564;2022-09-25T01:54:49;97614.75;;;7.68;100.00
21753;BME280;11038;50.940;20.564;2022-09-25T01:56:37;97607.63;;;7.68;100.00
21753;BME280;11038;50.940;20.564;2022-09-25T01:58:28;97610.72;;;7.63;100.00
21753;BME280;11038;50.940;20.564;2022-09-25T02:00:13;97608.22;;;7.62;100.00
21753;BME280;11038;50.940;20.564;2022-09-25T02:01:47;97602.75;;;7.63;100.00
21753;BME280;11038;50.940;20.564;2022-09-25T02:03:35;97598.44;;;7.62;100.00
21753;BME280;11038;50.940;20.564;2022-09-25T02:05:29;97601.41;;;7.59;100.00
21753;BME280;11038;50.940;20.564;2022-09-25T02:07:09;97599.72;;;7.58;100.00
21753;BME280;11038;50.940;20.564;2022-09-25T02:09:03;97605.56;;;7.62;100.00
21753;BME280;11038;50.940;20.564;2022-09-25T02:10:47;97605.34;;;7.55;100.00
21753;BME280;11038;50.940;20.564;2022-09-25T02:12:32;97611.06;;;7.60;100.00
21753;BME280;11038;50.940;20.564;2022-09-25T02:14:35;97607.03;;;7.56;100.00
21753;BME280;11038;50.940;20.564;2022-09-25T02:16:16;97605.50;;;7.53;100.00
21753;BME280;11038;50.940;20.564;2022-09-25T02:18:09;97601.69;;;7.56;100.00
21753;BME280;11038;50.940;20.564;2022-09-25T02:20:02;97611.06;;;7.60;100.00
21753;BME280;11038;50.940;20.564;2022-09-25T02:24:00;97614.31;;;7.54;100.00
21753;BME280;11038;50.940;20.564;2022-09-25T02:25:43;97604.66;;;7.53;100.00
21753;BME280;11038;50.940;20.564;2022-09-25T02:27:16;97610.66;;;7.55;100.00
21753;BME280;11038;50.940;20.564;2022-09-25T02:28:53;97615.97;;;7.55;100.00
21753;BME280;11038;50.940;20.564;2022-09-25T02:30:25;97610.81;;;7.53;100.00
21753;BME280;11038;50.940;20.564;2022-09-25T02:32:06;97613.31;;;7.55;100.00
21753;BME280;11038;50.940;20.564;2022-09-25T02:33:39;97614.16;;;7.56;100.00
21753;BME280;11038;50.940;20.564;2022-09-25T02:35:12;97610.44;;;7.48;100.00
21753;BME280;11038;50.940;20.564;2022-09-25T02:36:44;97605.97;;;7.49;100.00
21753;BME280;11038;50.940;20.564;2022-09-25T02:38:18;97605.44;;;7.45;100.00
21753;BME280;11038;50.940;20.564;2022-09-25T02:39:55;97603.31;;;7.49;100.00
21753;BME280;11038;50.940;20.564;2022-09-25T02:46:11;97608.69;;;7.57;100.00
21753;BME280;11038;50.940;20.564;2022-09-25T02:48:06;97605.66;;;7.52;100.00
21753;BME280;11038;50.940;20.564;2022-09-25T02:50:22;97610.28;;;7.50;100.00
21753;BME280;11038;50.940;20.564;2022-09-25T02:54:38;97605.06;;;7.40;100.00
21753;BME280;11038;50.940;20.564;2022-09-25T02:56:39;97605.91;;;7.40;100.00
21753;BME280;11038;50.940;20.564;2022-09-25T02:58:26;97598.06;;;7.39;100.00
21753;BME280;11038;50.940;20.564;2022-09-25T03:00:05;97591.59;;;7.41;100.00
21753;BME280;11038;50.940;20.564;2022-09-25T03:01:41;97593.81;;;7.28;100.00
21753;BME280;11038;50.940;20.564;2022-09-25T03:03:16;97587.16;;;7.24;100.00
21753;BME280;11038;50.940;20.564;2022-09-25T03:04:52;97589.44;;;7.18;100.00
21753;BME280;11038;50.940;20.564;2022-09-25T03:06:27;97587.69;;;7.27;100.00
21753;BME280;11038;50.940;20.564;2022-09-25T03:08:01;97586.31;;;7.23;100.00
21753;BME280;11038;50.940;20.564;2022-09-25T03:09:57;97586.00;;;7.26;100.00
21753;BME280;11038;50.940;20.564;2022-09-25T03:11:30;97587.16;;;7.24;100.00
21753;BME280;11038;50.940;20.564;2022-09-25T03:13:17;97576.84;;;7.20;100.00
21753;BME280;11038;50.940;20.564;2022-09-25T03:14:50;97580.09;;;7.14;100.00
21753;BME280;11038;50.940;20.564;2022-09-25T03:18:12;97574.34;;;7.19;100.00
21753;BME280;11038;50.940;20.564;2022-09-25T03:19:45;97573.19;;;7.22;100.00
21753;BME280;11038;50.940;20.564;2022-09-25T03:21:17;97580.16;;;7.23;100.00
21753;BME280;11038;50.940;20.564;2022-09-25T03:22:50;97579.84;;;7.26;100.00
21753;BME280;11038;50.940;20.564;2022-09-25T03:24:22;97583.34;;;7.26;100.00
21753;BME280;11038;50.940;20.564;2022-09-25T03:25:55;97581.84;;;7.24;100.00
21753;BME280;11038;50.940;20.564;2022-09-25T03:27:27;97579.03;;;7.25;100.00
21753;BME280;11038;50.940;20.564;2022-09-25T03:29:01;97583.81;;;7.22;100.00
21753;BME280;11038;50.940;20.564;2022-09-25T03:30:33;97576.84;;;7.20;100.00
21753;BME280;11038;50.940;20.564;2022-09-25T03:32:06;97581.31;;;7.20;100.00
21753;BME280;11038;50.940;20.564;2022-09-25T03:33:41;97577.50;;;7.23;100.00
21753;BME280;11038;50.940;20.564;2022-09-25T03:35:14;97574.16;;;7.20;100.00
21753;BME280;11038;50.940;20.564;2022-09-25T03:36:46;97575.56;;;7.25;100.00
21753;BME280;11038;50.940;20.564;2022-09-25T03:38:19;97582.69;;;7.24;100.00
21753;BME280;11038;50.940;20.564;2022-09-25T03:39:51;97576.53;;;7.24;100.00
21753;BME280;11038;50.940;20.564;2022-09-25T03:41:26;97584.19;;;7.27;100.00
21753;BME280;11038;50.940;20.564;2022-09-25T03:42:59;97579.56;;;7.29;100.00
21753;BME280;11038;50.940;20.564;2022-09-25T03:44:31;97575.94;;;7.30;100.00
21753;BME280;11038;50.940;20.564;2022-09-25T03:46:06;97568.75;;;7.30;100.00
21753;BME280;11038;50.940;20.564;2022-09-25T03:47:39;97571.28;;;7.32;100.00
21753;BME280;11038;50.940;20.564;2022-09-25T03:49:12;97564.16;;;7.33;100.00
21753;BME280;11038;50.940;20.564;2022-09-25T03:50:44;97575.22;;;7.28;100.00
21753;BME280;11038;50.940;20.564;2022-09-25T03:52:17;97572.56;;;7.28;100.00
21753;BME280;11038;50.940;20.564;2022-09-25T03:53:50;97576.53;;;7.24;100.00
21753;BME280;11038;50.940;20.564;2022-09-25T03:55:22;97572.34;;;7.21;100.00
21753;BME280;11038;50.940;20.564;2022-09-25T03:56:56;97572.06;;;7.24;100.00
21753;BME280;11038;50.940;20.564;2022-09-25T03:58:29;97571.59;;;7.29;100.00
21753;BME280;11038;50.940;20.564;2022-09-25T04:00:02;97579.03;;;7.25;100.00
21753;BME280;11038;50.940;20.564;2022-09-25T04:01:35;97578.22;;;7.25;100.00
21753;BME280;11038;50.940;20.564;2022-09-25T04:03:08;97570.38;;;7.23;100.00
21753;BME280;11038;50.940;20.564;2022-09-25T04:04:40;97568.19;;;7.18;100.00
21753;BME280;11038;50.940;20.564;2022-09-25T04:06:16;97576.00;;;7.20;100.00
21753;BME280;11038;50.940;20.564;2022-09-25T04:07:49;97570.16;;;7.16;100.00
21753;BME280;11038;50.940;20.564;2022-09-25T04:09:21;97569.78;;;7.11;100.00
21753;BME280;11038;50.940;20.564;2022-09-25T04:10:56;97576.63;;;7.14;100.00
21753;BME280;11038;50.940;20.564;2022-09-25T04:12:30;97566.28;;;7.11;100.00
21753;BME280;11038;50.940;20.564;2022-09-25T04:14:03;97571.31;;;7.14;100.00
21753;BME280;11038;50.940;20.564;2022-09-25T04:15:36;97573.34;;;7.20;100.00
21753;BME280;11038;50.940;20.564;2022-09-25T04:17:08;97570.31;;;7.15;100.00
21753;BME280;11038;50.940;20.564;2022-09-25T04:18:42;97571.50;;;7.20;100.00
21753;BME280;11038;50.940;20.564;2022-09-25T04:20:15;97572.81;;;7.16;100.00
21753;BME280;11038;50.940;20.564;2022-09-25T04:21:47;97578.81;;;7.18;100.00
21753;BME280;11038;50.940;20.564;2022-09-25T04:23:19;97570.16;;;7.16;100.00
21753;BME280;11038;50.940;20.564;2022-09-25T04:24:51;97570.69;;;7.20;100.00
21753;BME280;11038;50.940;20.564;2022-09-25T04:26:26;97567.34;;;7.18;100.00
21753;BME280;11038;50.940;20.564;2022-09-25T04:27:58;97565.91;;;7.24;100.00
21753;BME280;11038;50.940;20.564;2022-09-25T04:29:30;97568.00;;;7.20;100.00
21753;BME280;11038;50.940;20.564;2022-09-25T04:31:03;97565.53;;;7.18;100.00
21753;BME280;11038;50.940;20.564;2022-09-25T04:32:36;97572.06;;;7.24;100.00
21753;BME280;11038;50.940;20.564;2022-09-25T04:34:27;97567.56;;;7.25;100.00
21753;BME280;11038;50.940;20.564;2022-09-25T04:36:00;97571.50;;;7.20;100.00
21753;BME280;11038;50.940;20.564;2022-09-25T04:37:33;97577.19;;;7.26;100.00
21753;BME280;11038;50.940;20.564;2022-09-25T04:39:05;97576.91;;;7.29;100.00
21753;BME280;11038;50.940;20.564;2022-09-25T04:40:38;97568.72;;;7.22;100.00
21753;BME280;11038;50.940;20.564;2022-09-25T04:42:10;97565.22;;;7.22;100.00
21753;BME280;11038;50.940;20.564;2022-09-25T04:43:43;97566.09;;;7.30;100.00
21753;BME280;11038;50.940;20.564;2022-09-25T04:45:16;97565.00;;;7.33;100.00
21753;BME280;11038;50.940;20.564;2022-09-25T04:46:48;97567.19;;;7.38;100.00
21753;BME280;11038;50.940;20.564;2022-09-25T04:48:20;97558.97;;;7.49;100.00
21753;BME280;11038;50.940;20.564;2022-09-25T04:49:52;97565.31;;;7.57;100.00
21753;BME280;11038;50.940;20.564;2022-09-25T04:51:25;97560.63;;;7.77;100.00
21753;BME280;11038;50.940;20.564;2022-09-25T04:52:58;97574.34;;;7.64;100.00
21753;BME280;11038;50.940;20.564;2022-09-25T04:54:31;97568.56;;;7.69;100.00
21753;BME280;11038;50.940;20.564;2022-09-25T04:56:06;97570.69;;;7.65;100.00
21753;BME280;11038;50.940;20.564;2022-09-25T04:57:53;97567.56;;;7.70;100.00
21753;BME280;11038;50.940;20.564;2022-09-25T04:59:30;97576.25;;;7.80;100.00
21753;BME280;11038;50.940;20.564;2022-09-25T05:01:06;97569.56;;;8.03;100.00
21753;BME280;11038;50.940;20.564;2022-09-25T05:02:41;97560.81;;;8.11;100.00
21753;BME280;11038;50.940;20.564;2022-09-25T05:04:14;97562.66;;;8.18;100.00
21753;BME280;11038;50.940;20.564;2022-09-25T05:05:48;97559.84;;;8.20;100.00
21753;BME280;11038;50.940;20.564;2022-09-25T05:07:20;97563.50;;;8.19;100.00
21753;BME280;11038;50.940;20.564;2022-09-25T05:08:52;97555.88;;;8.24;100.00
21753;BME280;11038;50.940;20.564;2022-09-25T05:10:31;97568.06;;;8.35;100.00
21753;BME280;11038;50.940;20.564;2022-09-25T05:12:05;97560.59;;;8.39;100.00
21753;BME280;11038;50.940;20.564;2022-09-25T05:13:38;97563.88;;;8.33;100.00
21753;BME280;11038;50.940;20.564;2022-09-25T05:15:10;97566.19;;;8.27;100.00
21753;BME280;11038;50.940;20.564;2022-09-25T05:16:44;97567.19;;;8.18;100.00
21753;BME280;11038;50.940;20.564;2022-09-25T05:18:20;97570.56;;;8.37;100.00
21753;BME280;11038;50.940;20.564;2022-09-25T05:19:53;97570.13;;;8.50;100.00
21753;BME280;11038;50.940;20.564;2022-09-25T05:21:25;97576.94;;;8.52;100.00
21753;BME280;11038;50.940;20.564;2022-09-25T05:22:58;97576.94;;;8.52;100.00
21753;BME280;11038;50.940;20.564;2022-09-25T05:24:30;97580.56;;;8.43;100.00
21753;BME280;11038;50.940;20.564;2022-09-25T05:26:02;97577.25;;;8.49;100.00
21753;BME280;11038;50.940;20.564;2022-09-25T05:27:35;97574.50;;;8.59;100.00
21753;BME280;11038;50.940;20.564;2022-09-25T05:29:08;97575.00;;;8.63;100.00
21753;BME280;11038;50.940;20.564;2022-09-25T05:30:41;97585.03;;;8.69;100.00
21753;BME280;11038;50.940;20.564;2022-09-25T05:32:15;97584.72;;;8.81;100.00
21753;BME280;11038;50.940;20.564;2022-09-25T05:33:48;97582.41;;;9.11;100.00
21753;BME280;11038;50.940;20.564;2022-09-25T05:35:22;97584.09;;;9.12;100.00
21753;BME280;11038;50.940;20.564;2022-09-25T05:36:55;97582.94;;;9.06;100.00
21753;BME280;11038;50.940;20.564;2022-09-25T05:38:27;97580.91;;;9.00;100.00
21753;BME280;11038;50.940;20.564;2022-09-25T05:40:00;97574.91;;;8.98;100.00
21753;BME280;11038;50.940;20.564;2022-09-25T05:41:32;97570.44;;;8.99;100.00
21753;BME280;11038;50.940;20.564;2022-09-25T05:43:07;97568.75;;;8.97;100.00
21753;BME280;11038;50.940;20.564;2022-09-25T05:44:39;97570.75;;;8.95;100.00
21753;BME280;11038;50.940;20.564;2022-09-25T05:46:13;97571.59;;;8.96;100.00
21753;BME280;11038;50.940;20.564;2022-09-25T05:47:47;97573.94;;;8.99;100.00
21753;BME280;11038;50.940;20.564;2022-09-25T05:49:20;97575.22;;;8.78;100.00
21753;BME280;11038;50.940;20.564;2022-09-25T05:50:54;97579.69;;;8.69;100.00
21753;BME280;11038;50.940;20.564;2022-09-25T05:52:26;97580.53;;;8.70;100.00
21753;BME280;11038;50.940;20.564;2022-09-25T05:53:59;97584.63;;;8.56;100.00
21753;BME280;11038;50.940;20.564;2022-09-25T05:55:31;97577.94;;;8.51;100.00
21753;BME280;11038;50.940;20.564;2022-09-25T05:57:03;97575.28;;;8.51;100.00
21753;BME280;11038;50.940;20.564;2022-09-25T05:58:36;97575.25;;;8.43;100.00
21753;BME280;11038;50.940;20.564;2022-09-25T06:00:09;97575.06;;;8.36;100.00
21753;BME280;11038;50.940;20.564;2022-09-25T06:01:42;97577.56;;;8.38;100.00
21753;BME280;11038;50.940;20.564;2022-09-25T06:03:15;97573.25;;;8.37;100.00
21753;BME280;11038;50.940;20.564;2022-09-25T06:04:48;97569.59;;;8.46;100.00
21753;BME280;11038;50.940;20.564;2022-09-25T06:06:20;97579.97;;;8.58;100.00
21753;BME280;11038;50.940;20.564;2022-09-25T06:07:58;97574.50;;;8.68;100.00
21753;BME280;11038;50.940;20.564;2022-09-25T06:09:30;97571.91;;;8.84;100.00
21753;BME280;11038;50.940;20.564;2022-09-25T06:11:05;97568.44;;;9.09;100.00
21753;BME280;11038;50.940;20.564;2022-09-25T06:12:40;97572.78;;;9.35;100.00
21753;BME280;11038;50.940;20.564;2022-09-25T06:14:13;97566.44;;;9.61;100.00
21753;BME280;11038;50.940;20.564;2022-09-25T06:15:47;97569.38;;;10.00;100.00
21753;BME280;11038;50.940;20.564;2022-09-25T06:17:21;97580.84;;;10.17;100.00
21753;BME280;11038;50.940;20.564;2022-09-25T06:18:54;97576.34;;;10.10;99.46
21753;BME280;11038;50.940;20.564;2022-09-25T06:20:26;97573.59;;;10.35;98.88
21753;BME280;11038;50.940;20.564;2022-09-25T06:21:59;97575.88;;;10.55;97.89
21753;BME280;11038;50.940;20.564;2022-09-25T06:23:31;97570.94;;;10.75;95.46
21753;BME280;11038;50.940;20.564;2022-09-25T06:25:04;97572.06;;;10.81;94.87
21753;BME280;11038;50.940;20.564;2022-09-25T06:26:37;97569.06;;;11.07;93.21
21753;BME280;11038;50.940;20.564;2022-09-25T06:28:10;97580.09;;;11.28;92.63
21753;BME280;11038;50.940;20.564;2022-09-25T06:29:43;97573.09;;;11.27;91.19
21753;BME280;11038;50.940;20.564;2022-09-25T06:31:16;97570.91;;;11.07;91.92
21753;BME280;11038;50.940;20.564;2022-09-25T06:32:55;97577.03;;;11.16;91.31
21753;BME280;11038;50.940;20.564;2022-09-25T06:34:28;97576.22;;;11.54;90.45
21753;BME280;11038;50.940;20.564;2022-09-25T06:36:00;97578.84;;;11.78;90.18
21753;BME280;11038;50.940;20.564;2022-09-25T06:37:33;97569.28;;;11.45;90.42
21753;BME280;11038;50.940;20.564;2022-09-25T06:39:05;97575.41;;;11.54;89.07
21753;BME280;11038;50.940;20.564;2022-09-25T06:40:39;97574.13;;;11.41;89.07
21753;BME280;11038;50.940;20.564;2022-09-25T06:42:12;97575.59;;;11.05;89.97
21753;BME280;11038;50.940;20.564;2022-09-25T06:43:48;97573.22;;;11.10;90.47
21753;BME280;11038;50.940;20.564;2022-09-25T06:45:21;97567.25;;;11.47;90.59
21753;BME280;11038;50.940;20.564;2022-09-25T06:46:53;97568.97;;;11.39;89.71
21753;BME280;11038;50.940;20.564;2022-09-25T06:48:25;97572.94;;;11.44;90.78
21753;BME280;11038;50.940;20.564;2022-09-25T06:49:58;97571.31;;;11.43;90.38
21753;BME280;11038;50.940;20.564;2022-09-25T06:51:34;97577.25;;;11.68;89.98
21753;BME280;11038;50.940;20.564;2022-09-25T06:53:06;97576.97;;;11.63;90.15
21753;BME280;11038;50.940;20.564;2022-09-25T06:54:39;97573.94;;;11.66;90.32
21753;BME280;11038;50.940;20.564;2022-09-25T06:56:15;97572.59;;;11.47;90.03
21753;BME280;11038;50.940;20.564;2022-09-25T06:57:48;97578.00;;;11.77;90.09
21753;BME280;11038;50.940;20.564;2022-09-25T06:59:20;97572.94;;;11.82;90.17
21753;BME280;11038;50.940;20.564;2022-09-25T07:00:55;97583.72;;;11.74;89.76
21753;BME280;11038;50.940;20.564;2022-09-25T07:02:27;97570.25;;;11.67;89.72
21753;BME280;11038;50.940;20.564;2022-09-25T07:04:18;97575.19;;;11.55;89.62
21753;BME280;11038;50.940;20.564;2022-09-25T07:05:51;97581.34;;;11.79;90.22
21753;BME280;11038;50.940;20.564;2022-09-25T07:07:23;97576.69;;;12.12;90.14
21753;BME280;11038;50.940;20.564;2022-09-25T07:08:56;97581.38;;;12.10;89.72
21753;BME280;11038;50.940;20.564;2022-09-25T07:10:29;97577.50;;;11.97;88.88
21753;BME280;11038;50.940;20.564;2022-09-25T07:12:01;97579.97;;;11.83;88.80
21753;BME280;11038;50.940;20.564;2022-09-25T07:13:35;97570.69;;;12.40;89.07
21753;BME280;11038;50.940;20.564;2022-09-25T07:15:08;97567.00;;;12.78;88.67
21753;BME280;11038;50.940;20.564;2022-09-25T07:16:40;97571.88;;;12.53;86.70
21753;BME280;11038;50.940;20.564;2022-09-25T07:18:12;97564.94;;;12.43;87.81
21753;BME280;11038;50.940;20.564;2022-09-25T07:19:45;97570.63;;;12.70;87.67
21753;BME280;11038;50.940;20.564;2022-09-25T07:21:20;97566.16;;;12.78;87.23
21753;BME280;11038;50.940;20.564;2022-09-25T07:22:58;97572.50;;;12.92;84.68
21753;BME280;11038;50.940;20.564;2022-09-25T07:24:35;97567.69;;;12.65;83.64
21753;BME280;11038;50.940;20.564;2022-09-25T07:26:17;97573.72;;;12.89;84.27
21753;BME280;11038;50.940;20.564;2022-09-25T07:27:54;97573.59;;;12.98;82.99
21753;BME280;11038;50.940;20.564;2022-09-25T07:29:26;97575.66;;;13.17;82.91
21753;BME280;11038;50.940;20.564;2022-09-25T07:31:09;97576.38;;;13.26;81.50
21753;BME280;11038;50.940;20.564;2022-09-25T07:32:43;97581.28;;;13.45;80.86
21753;BME280;11038;50.940;20.564;2022-09-25T07:34:16;97580.06;;;13.47;79.05
21753;BME280;11038;50.940;20.564;2022-09-25T07:35:48;97582.94;;;13.46;78.76
21753;BME280;11038;50.940;20.564;2022-09-25T07:37:20;97583.72;;;13.39;78.95
21753;BME280;11038;50.940;20.564;2022-09-25T07:38:53;97583.00;;;13.53;79.29
21753;BME280;11038;50.940;20.564;2022-09-25T07:40:26;97582.00;;;13.32;79.48
21753;BME280;11038;50.940;20.564;2022-09-25T07:42:00;97583.22;;;13.29;79.40
21753;BME280;11038;50.940;20.564;2022-09-25T07:43:33;97577.75;;;13.44;79.42
21753;BME280;11038;50.940;20.564;2022-09-25T07:45:07;97583.09;;;13.37;78.83
21753;BME280;11038;50.940;20.564;2022-09-25T07:46:41;97586.91;;;13.28;77.69
21753;BME280;11038;50.940;20.564;2022-09-25T07:48:14;97582.84;;;12.95;79.07
21753;BME280;11038;50.940;20.564;2022-09-25T07:49:46;97585.16;;;12.98;80.02
21753;BME280;11038;50.940;20.564;2022-09-25T07:51:19;97580.50;;;12.70;81.27
21753;BME280;11038;50.940;20.564;2022-09-25T07:52:53;97579.25;;;12.50;81.31
21753;BME280;11038;50.940;20.564;2022-09-25T07:54:26;97583.22;;;12.55;82.89
21753;BME280;11038;50.940;20.564;2022-09-25T07:56:00;97576.13;;;12.47;83.99
21753;BME280;11038;50.940;20.564;2022-09-25T07:57:38;97577.16;;;12.31;83.95
21753;BME280;11038;50.940;20.564;2022-09-25T07:59:13;97576.75;;;12.03;83.78
21753;BME280;11038;50.940;20.564;2022-09-25T08:00:45;97573.34;;;11.94;84.86
21753;BME280;11038;50.940;20.564;2022-09-25T08:02:17;97577.88;;;12.09;86.39
21753;BME280;11038;50.940;20.564;2022-09-25T08:03:50;97579.25;;;11.90;86.71
21753;BME280;11038;50.940;20.564;2022-09-25T08:05:23;97576.94;;;11.87;85.55
21753;BME280;11038;50.940;20.564;2022-09-25T08:06:58;97574.72;;;12.05;85.68
21753;BME280;11038;50.940;20.564;2022-09-25T08:08:33;97580.31;;;12.19;86.10
21753;BME280;11038;50.940;20.564;2022-09-25T08:10:06;97579.97;;;11.99;86.30
21753;BME280;11038;50.940;20.564;2022-09-25T08:11:39;97575.00;;;11.95;86.27
21753;BME280;11038;50.940;20.564;2022-09-25T08:13:11;97572.50;;;11.94;86.72
21753;BME280;11038;50.940;20.564;2022-09-25T08:14:44;97575.09;;;12.02;86.85
21753;BME280;11038;50.940;20.564;2022-09-25T08:16:17;97576.09;;;12.01;86.51
21753;BME280;11038;50.940;20.564;2022-09-25T08:17:52;97578.78;;;12.01;87.51
21753;BME280;11038;50.940;20.564;2022-09-25T08:19:25;97572.84;;;12.14;87.60
21753;BME280;11038;50.940;20.564;2022-09-25T08:21:03;97571.13;;;12.28;87.61
21753;BME280;11038;50.940;20.564;2022-09-25T08:22:36;97563.94;;;12.29;87.78
21753;BME280;11038;50.940;20.564;2022-09-25T08:24:08;97561.25;;;12.29;87.84
21753;BME280;11038;50.940;20.564;2022-09-25T08:25:41;97560.34;;;12.22;86.35
21753;BME280;11038;50.940;20.564;2022-09-25T08:27:14;97563.88;;;12.22;86.23
21753;BME280;11038;50.940;20.564;2022-09-25T08:28:47;97559.53;;;12.36;85.22
21753;BME280;11038;50.940;20.564;2022-09-25T08:30:19;97564.41;;;12.33;84.70
21753;BME280;11038;50.940;20.564;2022-09-25T08:31:52;97555.13;;;12.50;84.88
21753;BME280;11038;50.940;20.564;2022-09-25T08:33:25;97550.97;;;12.48;84.55
21753;BME280;11038;50.940;20.564;2022-09-25T08:34:57;97553.38;;;12.43;84.98
21753;BME280;11038;50.940;20.564;2022-09-25T08:36:32;97552.28;;;12.37;84.29
21753;BME280;11038;50.940;20.564;2022-09-25T08:38:04;97550.53;;;12.44;84.60